Time;durP1;ratioP1;P1;durP2;ratioP2;P2;SDS_P1;SDS_P2;PMS_P1;PMS_P2;Temp;Humidity;BMP_temperature;BMP_pressure;BME280_temperature;BME280_humidity;BME280_pressure;Samples;Min_cycle;Max_cycle;Signal;HPM_P1;HPM_P2
2021/12/28 06:16:03;;;;;;;94.10;13.80;;;;;;;;;;5496874;23;20057;-75
2021/12/28 06:18:30;;;;;;;104.60;13.50;;;;;;;;;;4870620;29;20136;-76
2021/12/28 06:20:56;;;;;;;102.72;14.15;;;;;;;;;;4873856;29;20486;-75
2021/12/28 06:23:23;;;;;;;111.53;13.68;;;;;;;;;;4869395;29;20425;-75
2021/12/28 06:25:50;;;;;;;107.60;13.45;;;;;;;;;;4868766;29;20129;-75
2021/12/28 06:28:17;;;;;;;102.82;13.98;;;;;;;;;;4873502;29;20061;-76
2021/12/28 06:30:43;;;;;;;89.70;12.15;;;;;;;;;;4873853;29;20077;-77
2021/12/28 06:33:10;;;;;;;118.80;13.98;;;;;;;;;;4869772;29;20044;-76
2021/12/28 06:35:37;;;;;;;100.35;12.48;;;;;;;;;;4873767;29;20059;-76
2021/12/28 06:38:03;;;;;;;94.53;13.50;;;;;;;;;;4873029;29;20132;-76
2021/12/28 06:40:30;;;;;;;101.25;13.43;;;;;;;;;;4873560;29;20077;-75
2021/12/28 06:42:57;;;;;;;98.68;12.10;;;;;;;;;;4873728;29;20105;-76
2021/12/28 06:45:23;;;;;;;98.40;11.65;;;;;;;;;;4873968;29;20049;-78
2021/12/28 06:47:50;;;;;;;99.68;12.23;;;;;;;;;;4874641;29;20052;-75
2021/12/28 06:50:17;;;;;;;102.90;12.45;;;;;;;;;;4874294;29;20074;-76
2021/12/28 06:52:44;;;;;;;91.35;12.63;;;;;;;;;;4875054;29;20053;-76
2021/12/28 06:55:10;;;;;;;108.45;12.00;;;;;;;;;;4874195;29;20085;-77
2021/12/28 06:57:37;;;;;;;94.93;11.68;;;;;;;;;;4888375;29;20049;-77
2021/12/28 07:00:10;;;;;;;82.47;10.77;;;;;;;;;;4873955;29;20084;-76
2021/12/28 07:02:37;;;;;;;87.22;11.38;;;;;;;;;;4874249;29;20421;-77
2021/12/28 07:05:04;;;;;;;85.18;11.25;;;;;;;;;;4885974;29;20048;-76
2021/12/28 07:07:31;;;;;;;107.57;13.02;;;;;;;;;;4887830;29;20056;-77
2021/12/28 07:09:58;;;;;;;96.95;11.77;;;;;;;;;;4878958;29;20467;-77
2021/12/28 07:12:25;;;;;;;107.05;13.20;;;;;;;;;;4877627;29;20073;-76
2021/12/28 07:14:51;;;;;;;100.50;12.10;;;;;;;;;;4877676;29;20100;-76
2021/12/28 07:17:18;;;;;;;83.10;10.98;;;;;;;;;;4874934;29;20467;-76
2021/12/28 07:19:46;;;;;;;93.53;11.65;;;;;;;;;;4878046;29;20052;-76
2021/12/28 07:22:12;;;;;;;107.38;12.05;;;;;;;;;;4876429;29;20063;-76
2021/12/28 07:24:39;;;;;;;112.15;14.20;;;;;;;;;;4862168;29;20467;-76
2021/12/28 07:27:06;;;;;;;100.00;13.10;;;;;;;;;;4877266;29;20057;-76
2021/12/28 07:29:33;;;;;;;97.13;13.10;;;;;;;;;;4877339;29;20172;-76
2021/12/28 07:32:02;;;;;;;95.80;12.30;;;;;;;;;;4877516;29;20053;-76
2021/12/28 07:34:31;;;;;;;106.22;12.85;;;;;;;;;;4876848;29;20049;-76
2021/12/28 07:36:58;;;;;;;97.63;13.43;;;;;;;;;;4876280;29;20041;-76
2021/12/28 07:39:25;;;;;;;86.90;10.95;;;;;;;;;;4875108;29;20406;-76
2021/12/28 07:41:52;;;;;;;100.25;12.93;;;;;;;;;;4875635;29;20104;-76
2021/12/28 07:44:22;;;;;;;81.28;11.32;;;;;;;;;;4875084;29;20057;-76
2021/12/28 07:46:49;;;;;;;91.35;12.07;;;;;;;;;;4872825;29;20078;-77
2021/12/28 07:49:15;;;;;;;98.35;12.85;;;;;;;;;;4876640;29;20076;-77
2021/12/28 07:51:43;;;;;;;90.30;10.80;;;;;;;;;;4877046;29;20053;-77
2021/12/28 07:54:09;;;;;;;97.50;11.10;;;;;;;;;;4876433;29;20131;-77
2021/12/28 07:56:37;;;;;;;102.30;13.65;;;;;;;;;;4875745;29;20045;-77
2021/12/28 07:59:04;;;;;;;85.93;11.67;;;;;;;;;;4875526;29;20060;-76
2021/12/28 08:01:32;;;;;;;89.70;10.60;;;;;;;;;;4876354;29;20125;-76
2021/12/28 08:04:00;;;;;;;88.25;11.07;;;;;;;;;;4876636;29;20052;-79
2021/12/28 08:06:27;;;;;;;95.55;11.05;;;;;;;;;;4876268;29;20100;-77
2021/12/28 08:08:53;;;;;;;99.28;12.27;;;;;;;;;;4876062;29;20097;-76
2021/12/28 08:11:22;;;;;;;91.10;13.48;;;;;;;;;;4875644;29;20113;-77
2021/12/28 08:13:49;;;;;;;88.97;11.23;;;;;;;;;;4876263;29;20105;-79
2021/12/28 08:16:16;;;;;;;98.40;11.65;;;;;;;;;;4875770;29;20510;-76
2021/12/28 08:18:43;;;;;;;105.70;12.75;;;;;;;;;;4874971;29;20490;-76
2021/12/28 08:21:09;;;;;;;93.30;11.15;;;;;;;;;;4875301;29;20096;-76
2021/12/28 08:23:36;;;;;;;93.15;11.45;;;;;;;;;;4875122;29;20053;-77
2021/12/28 08:26:03;;;;;;;97.35;11.00;;;;;;;;;;4876184;29;20057;-76
2021/12/28 08:28:29;;;;;;;97.07;12.60;;;;;;;;;;4873739;29;20049;-77
2021/12/28 08:30:57;;;;;;;96.13;12.27;;;;;;;;;;4876431;29;20053;-76
2021/12/28 08:33:23;;;;;;;92.18;11.50;;;;;;;;;;4875383;29;20156;-78
2021/12/28 08:35:53;;;;;;;101.68;13.45;;;;;;;;;;4875978;29;20425;-77
2021/12/28 08:38:20;;;;;;;108.07;12.57;;;;;;;;;;4875321;29;20809;-77
2021/12/28 08:40:47;;;;;;;100.53;12.00;;;;;;;;;;4875982;29;20053;-79
2021/12/28 08:43:14;;;;;;;104.07;12.88;;;;;;;;;;4868420;29;20747;-83
2021/12/28 08:45:41;;;;;;;117.00;11.65;;;;;;;;;;4871960;29;20845;-77
2021/12/28 08:48:11;;;;;;;96.60;11.57;;;;;;;;;;4882080;29;20148;-76
2021/12/28 08:50:38;;;;;;;123.57;13.55;;;;;;;;;;4872330;29;20131;-77
2021/12/28 08:53:05;;;;;;;104.07;11.25;;;;;;;;;;4869718;29;20049;-78
2021/12/28 08:55:32;;;;;;;103.22;13.27;;;;;;;;;;4869887;29;20588;-78
2021/12/28 08:57:59;;;;;;;101.85;11.75;;;;;;;;;;4871253;29;20048;-79
2021/12/28 09:00:29;;;;;;;117.20;13.73;;;;;;;;;;4870031;29;20057;-78
2021/12/28 09:02:57;;;;;;;88.63;11.18;;;;;;;;;;4871522;29;20435;-78
2021/12/28 09:05:25;;;;;;;117.28;12.88;;;;;;;;;;4867426;29;20045;-79
2021/12/28 09:07:52;;;;;;;93.72;12.07;;;;;;;;;;4870532;29;20049;-77
2021/12/28 09:10:20;;;;;;;100.03;10.95;;;;;;;;;;4870516;29;20049;-78
2021/12/28 09:12:47;;;;;;;105.43;12.15;;;;;;;;;;4869674;29;20049;-79
2021/12/28 09:15:14;;;;;;;84.60;11.88;;;;;;;;;;4868159;29;20387;-78
2021/12/28 09:17:41;;;;;;;105.32;12.20;;;;;;;;;;4853911;29;20056;-76
2021/12/28 09:20:13;;;;;;;102.72;11.65;;;;;;;;;;4853221;29;20049;-79
2021/12/28 09:23:00;;;;;;;84.35;10.98;;;;;;;;;;4869250;29;20168;-79
2021/12/28 09:25:27;;;;;;;92.57;11.18;;;;;;;;;;4867635;29;20053;-80
2021/12/28 09:27:54;;;;;;;97.68;12.80;;;;;;;;;;4869991;29;20089;-78
2021/12/28 09:30:21;;;;;;;94.43;10.88;;;;;;;;;;4868003;29;20922;-78
2021/12/28 09:32:48;;;;;;;92.85;11.05;;;;;;;;;;4870830;29;20464;-79
2021/12/28 09:35:16;;;;;;;93.53;10.50;;;;;;;;;;4868890;29;20073;-78
2021/12/28 09:37:42;;;;;;;88.00;12.32;;;;;;;;;;4891908;29;20834;-78
2021/12/28 09:40:10;;;;;;;85.38;10.63;;;;;;;;;;4868214;29;20152;-78
2021/12/28 09:42:38;;;;;;;88.50;11.05;;;;;;;;;;4870747;29;20585;-78
2021/12/28 09:45:06;;;;;;;77.13;9.75;;;;;;;;;;4869184;29;20053;-77
2021/12/28 09:47:33;;;;;;;85.85;10.50;;;;;;;;;;4869478;29;20059;-78
2021/12/28 09:50:03;;;;;;;;;;;;;;;;;;4851254;29;20056;-78
2021/12/28 09:52:29;;;;;;;93.85;11.43;;;;;;;;;;4868090;29;20429;-78
2021/12/28 09:54:56;;;;;;;97.63;12.57;;;;;;;;;;4868298;29;20052;-78
2021/12/28 09:57:23;;;;;;;92.05;12.75;;;;;;;;;;4867065;29;20053;-77
2021/12/28 09:59:50;;;;;;;104.32;12.82;;;;;;;;;;4867712;29;20561;-77
2021/12/28 10:02:19;;;;;;;107.57;13.00;;;;;;;;;;4868046;29;20044;-77
2021/12/28 10:05:04;;;;;;;94.00;11.88;;;;;;;;;;4853862;29;20128;-79
2021/12/28 10:07:33;;;;;;;103.20;12.57;;;;;;;;;;4867794;29;20073;-78
2021/12/28 10:10:00;;;;;;;95.85;11.70;;;;;;;;;;4868137;29;20168;-78
2021/12/28 10:12:35;;;;;;;95.60;11.98;;;;;;;;;;4868826;29;20585;-77
2021/12/28 10:15:06;;;;;;;105.78;12.48;;;;;;;;;;4868376;29;20872;-77
2021/12/28 10:17:34;;;;;;;101.78;12.60;;;;;;;;;;4869435;29;20049;-77
2021/12/28 10:20:04;;;;;;;109.55;14.35;;;;;;;;;;4866542;29;20053;-78
2021/12/28 10:22:35;;;;;;;103.30;11.65;;;;;;;;;;4869171;29;20049;-78
2021/12/28 10:25:07;;;;;;;108.00;13.38;;;;;;;;;;4865652;29;20108;-77
2021/12/28 10:27:36;;;;;;;105.93;11.13;;;;;;;;;;4870262;29;20049;-78
2021/12/28 10:30:23;;;;;;;113.63;13.30;;;;;;;;;;4869289;29;20049;-76
2021/12/28 10:32:52;;;;;;;109.75;13.15;;;;;;;;;;4868467;29;20077;-77
2021/12/28 10:35:28;;;;;;;96.55;13.15;;;;;;;;;;4868853;29;20057;-78
2021/12/28 10:38:00;;;;;;;100.25;12.93;;;;;;;;;;4868207;29;20100;-77
2021/12/28 10:40:37;;;;;;;102.45;14.48;;;;;;;;;;4867926;29;20075;-76
2021/12/28 10:43:11;;;;;;;102.10;12.40;;;;;;;;;;4868671;29;20111;-77
2021/12/28 10:45:43;;;;;;;96.78;11.95;;;;;;;;;;4871341;29;20419;-78
2021/12/28 10:48:22;;;;;;;116.25;13.80;;;;;;;;;;4870255;29;20112;-77
2021/12/28 10:51:02;;;;;;;111.25;13.32;;;;;;;;;;4871162;29;20133;-78
2021/12/28 10:53:38;;;;;;;109.85;13.32;;;;;;;;;;4871335;29;20084;-77
2021/12/28 10:56:07;;;;;;;111.80;13.57;;;;;;;;;;4868160;29;20148;-76
2021/12/28 10:58:41;;;;;;;108.93;14.40;;;;;;;;;;4870406;29;20120;-77
2021/12/28 11:01:11;;;;;;;101.93;12.10;;;;;;;;;;4872509;29;20053;-79
2021/12/28 11:03:41;;;;;;;104.70;12.32;;;;;;;;;;4872978;29;20067;-78
2021/12/28 11:06:15;;;;;;;120.55;14.00;;;;;;;;;;4871505;29;20052;-78
2021/12/28 11:08:44;;;;;;;106.75;12.75;;;;;;;;;;4872829;29;20410;-79
2021/12/28 11:11:13;;;;;;;116.93;15.00;;;;;;;;;;4870326;29;20053;-79
2021/12/28 11:13:41;;;;;;;115.78;13.45;;;;;;;;;;4869869;29;20057;-80
2021/12/28 11:16:10;;;;;;;114.90;14.52;;;;;;;;;;4867784;29;20475;-79
2021/12/28 11:18:43;;;;;;;109.93;13.45;;;;;;;;;;4871678;29;20298;-79
2021/12/28 11:21:22;;;;;;;121.53;13.80;;;;;;;;;;4884072;29;20045;-78
2021/12/28 11:23:52;;;;;;;107.95;15.57;;;;;;;;;;4872499;29;20522;-78
2021/12/28 11:26:33;;;;;;;103.93;12.60;;;;;;;;;;4876119;29;20052;-80
2021/12/28 11:29:15;;;;;;;110.32;12.23;;;;;;;;;;4868427;29;20117;-77
2021/12/28 11:32:04;;;;;;;114.10;13.32;;;;;;;;;;4870235;29;20136;-79
2021/12/28 11:34:33;;;;;;;122.72;14.93;;;;;;;;;;4870249;29;20139;-80
2021/12/28 11:37:05;;;;;;;118.28;15.18;;;;;;;;;;4870318;29;20056;-78
2021/12/28 11:39:34;;;;;;;117.72;15.05;;;;;;;;;;4871494;29;20049;-77
2021/12/28 11:42:02;;;;;;;97.38;12.45;;;;;;;;;;4871870;29;20129;-78
2021/12/28 11:44:29;;;;;;;109.35;13.00;;;;;;;;;;4870962;29;20053;-78
2021/12/28 11:46:58;;;;;;;105.35;13.57;;;;;;;;;;4869917;29;20044;-78
2021/12/28 11:49:28;;;;;;;121.82;13.15;;;;;;;;;;4867069;29;20114;-77
2021/12/28 11:51:58;;;;;;;108.72;13.95;;;;;;;;;;4871316;29;20164;-77
2021/12/28 11:54:27;;;;;;;94.30;11.52;;;;;;;;;;4869946;29;20068;-78
2021/12/28 11:57:00;;;;;;;92.18;14.00;;;;;;;;;;4872025;29;20060;-76
2021/12/28 11:59:28;;;;;;;104.10;12.63;;;;;;;;;;4866847;29;20053;-78
2021/12/28 12:01:55;;;;;;;84.25;11.10;;;;;;;;;;4869671;29;20045;-77
2021/12/28 12:04:34;;;;;;;106.60;12.52;;;;;;;;;;4869006;29;20524;-78
2021/12/28 12:07:06;;;;;;;;;;;;;;;;;;4872461;29;20067;-78
2021/12/28 12:09:55;;;;;;;92.18;10.07;;;;;;;;;;4867412;29;20705;-78
2021/12/28 12:12:43;;;;;;;107.85;11.45;;;;;;;;;;4871734;29;20109;-79
2021/12/28 12:15:16;;;;;;;95.32;12.23;;;;;;;;;;4870958;29;20045;-81
2021/12/28 12:17:43;;;;;;;91.75;11.40;;;;;;;;;;4870656;29;20474;-82
2021/12/28 12:20:16;;;;;;;89.75;11.25;;;;;;;;;;4870399;29;20053;-82
2021/12/28 12:22:45;;;;;;;73.95;9.32;;;;;;;;;;4872279;29;20892;-82
2021/12/28 12:25:18;;;;;;;70.97;8.57;;;;;;;;;;4870711;29;20101;-81
2021/12/28 12:27:52;;;;;;;58.35;7.68;;;;;;;;;;4872908;29;20052;-81
2021/12/28 12:30:18;;;;;;;49.25;6.38;;;;;;;;;;4868727;29;20552;-81
2021/12/28 12:33:05;;;;;;;45.30;5.80;;;;;;;;;;4872188;29;20429;-81
2021/12/28 12:35:46;;;;;;;46.08;5.45;;;;;;;;;;4871383;29;20057;-82
2021/12/28 12:38:14;;;;;;;29.08;4.68;;;;;;;;;;4867395;29;20134;-81
2021/12/28 12:40:54;;;;;;;40.30;4.72;;;;;;;;;;4871410;29;20049;-78
2021/12/28 12:43:24;;;;;;;33.08;4.38;;;;;;;;;;4869184;29;20084;-78
2021/12/28 12:45:50;;;;;;;41.00;5.32;;;;;;;;;;4870674;29;20088;-77
2021/12/28 12:48:33;;;;;;;35.85;4.38;;;;;;;;;;4869751;29;20056;-77
2021/12/28 12:51:19;;;;;;;37.67;4.25;;;;;;;;;;4869347;29;20079;-78
2021/12/28 12:53:59;;;;;;;26.95;3.10;;;;;;;;;;4869260;29;20494;-77
2021/12/28 12:56:32;;;;;;;30.25;4.22;;;;;;;;;;4868537;29;20049;-78
2021/12/28 12:59:02;;;;;;;26.63;3.88;;;;;;;;;;4868815;29;20087;-77
2021/12/28 13:01:33;;;;;;;28.42;5.25;;;;;;;;;;4868738;29;20132;-77
2021/12/28 13:04:01;;;;;;;37.58;3.85;;;;;;;;;;4871471;29;20521;-79
2021/12/28 13:06:39;;;;;;;32.72;4.07;;;;;;;;;;4882871;29;20117;-76
2021/12/28 13:09:10;;;;;;;23.73;4.10;;;;;;;;;;4870211;29;20064;-76
2021/12/28 13:11:39;;;;;;;29.13;3.58;;;;;;;;;;4866601;29;20127;-78
2021/12/28 13:14:05;;;;;;;26.05;3.53;;;;;;;;;;4870174;29;20057;-77
2021/12/28 13:16:32;;;;;;;33.75;3.30;;;;;;;;;;4870010;29;20064;-78
2021/12/28 13:19:25;;;;;;;24.88;3.85;;;;;;;;;;4869801;29;20072;-78
2021/12/28 13:22:00;;;;;;;26.48;3.42;;;;;;;;;;4868134;29;20048;-78
2021/12/28 13:24:29;;;;;;;27.83;3.83;;;;;;;;;;4869529;29;20390;-78
2021/12/28 13:26:59;;;;;;;28.48;3.58;;;;;;;;;;4868811;29;20586;-77
2021/12/28 13:29:26;;;;;;;33.53;4.10;;;;;;;;;;4867396;29;20064;-78
2021/12/28 13:31:54;;;;;;;29.30;4.70;;;;;;;;;;4869528;29;20121;-78
2021/12/28 13:34:20;;;;;;;29.77;3.90;;;;;;;;;;4867511;29;20049;-78
2021/12/28 13:36:51;;;;;;;25.50;3.88;;;;;;;;;;4870140;29;20143;-78
2021/12/28 13:39:18;;;;;;;25.85;3.15;;;;;;;;;;4868108;29;20088;-77
2021/12/28 13:41:51;;;;;;;31.52;3.90;;;;;;;;;;4862790;29;20037;-77
2021/12/28 13:44:18;;;;;;;22.23;3.65;;;;;;;;;;4867562;29;20343;-77
2021/12/28 13:46:45;;;;;;;21.30;3.10;;;;;;;;;;4868055;29;20187;-78
2021/12/28 13:49:14;;;;;;;39.65;3.70;;;;;;;;;;4868195;29;20076;-78
2021/12/28 13:51:42;;;;;;;20.45;3.35;;;;;;;;;;4868677;29;20045;-77
2021/12/28 13:54:08;;;;;;;25.25;2.83;;;;;;;;;;4869686;29;20128;-78
2021/12/28 13:56:42;;;;;;;26.90;3.92;;;;;;;;;;4870318;29;20164;-77
2021/12/28 13:59:12;;;;;;;26.67;3.58;;;;;;;;;;4864471;29;20056;-79
2021/12/28 14:01:43;;;;;;;29.88;4.45;;;;;;;;;;4867917;29;20137;-79
2021/12/28 14:04:19;;;;;;;40.38;4.30;;;;;;;;;;4867698;29;20060;-78
2021/12/28 14:06:49;;;;;;;38.15;4.47;;;;;;;;;;4870417;29;20093;-78
2021/12/28 14:09:22;;;;;;;28.02;4.10;;;;;;;;;;4868058;29;20129;-79
2021/12/28 14:11:54;;;;;;;44.08;4.60;;;;;;;;;;4868290;29;20467;-77
2021/12/28 14:14:21;;;;;;;;;;;;;;;;;;4868613;29;20057;-78
2021/12/28 14:16:56;;;;;;;38.85;5.20;;;;;;;;;;4870431;29;19949;-78
2021/12/28 14:19:26;;;;;;;33.45;4.18;;;;;;;;;;4872407;29;20089;-78
2021/12/28 14:21:53;;;;;;;35.72;4.85;;;;;;;;;;4872453;29;20128;-79
2021/12/28 14:24:20;;;;;;;28.85;4.85;;;;;;;;;;4864084;29;20037;-79
2021/12/28 14:26:49;;;;;;;27.80;6.22;;;;;;;;;;4868561;29;20048;-77
2021/12/28 14:29:20;;;;;;;36.25;5.85;;;;;;;;;;4867990;29;20060;-77
2021/12/28 14:31:56;;;;;;;30.80;4.65;;;;;;;;;;4851957;29;20570;-77
2021/12/28 14:34:40;;;;;;;36.72;4.97;;;;;;;;;;4869333;29;24946;-78
2021/12/28 14:37:10;;;;;;;28.15;4.00;;;;;;;;;;4867880;29;20057;-79
2021/12/28 14:39:51;;;;;;;35.70;4.78;;;;;;;;;;4870090;29;20136;-79
2021/12/28 14:42:21;;;;;;;32.67;3.90;;;;;;;;;;4868817;29;20053;-78
2021/12/28 14:44:50;;;;;;;37.63;4.80;;;;;;;;;;4869559;29;20660;-79
2021/12/28 14:47:24;;;;;;;34.50;3.65;;;;;;;;;;4869516;29;20549;-76
2021/12/28 14:49:53;;;;;;;42.80;5.57;;;;;;;;;;4868940;29;20112;-79
2021/12/28 14:52:32;;;;;;;32.17;4.47;;;;;;;;;;4868194;29;20097;-78
2021/12/28 14:55:04;;;;;;;35.85;4.30;;;;;;;;;;4870377;29;20137;-78
2021/12/28 14:57:40;;;;;;;29.52;3.90;;;;;;;;;;4870120;29;20120;-78
2021/12/28 15:00:12;;;;;;;33.03;4.13;;;;;;;;;;4867501;29;20061;-78
2021/12/28 15:02:56;;;;;;;32.85;4.07;;;;;;;;;;4870273;29;20475;-78
2021/12/28 15:05:27;;;;;;;37.70;4.20;;;;;;;;;;4864538;29;20092;-78
2021/12/28 15:08:02;;;;;;;37.05;4.70;;;;;;;;;;4870149;29;20093;-80
2021/12/28 15:10:30;;;;;;;34.40;4.00;;;;;;;;;;4865687;29;20088;-79
2021/12/28 15:13:01;;;;;;;33.97;5.30;;;;;;;;;;4849722;29;20124;-77
2021/12/28 15:15:28;;;;;;;38.17;4.93;;;;;;;;;;4860094;29;20046;-77
2021/12/28 15:17:56;;;;;;;41.03;3.70;;;;;;;;;;4852728;29;20056;-77
2021/12/28 15:20:27;;;;;;;30.47;3.57;;;;;;;;;;4869027;29;20060;-77
2021/12/28 15:22:54;;;;;;;22.95;3.20;;;;;;;;;;4865662;29;20463;-80
2021/12/28 15:25:22;;;;;;;23.35;2.88;;;;;;;;;;4869144;29;20087;-79
2021/12/28 15:27:51;;;;;;;20.98;3.42;;;;;;;;;;4868798;29;20045;-80
2021/12/28 15:30:24;;;;;;;10.93;1.90;;;;;;;;;;4869293;29;20052;-79
2021/12/28 15:32:52;;;;;;;11.88;1.67;;;;;;;;;;4870295;29;20041;-80
2021/12/28 15:35:33;;;;;;;8.02;1.45;;;;;;;;;;4879352;29;20056;-80
2021/12/28 15:38:02;;;;;;;8.73;2.00;;;;;;;;;;4854829;29;20053;-79
2021/12/28 15:40:31;;;;;;;14.60;5.32;;;;;;;;;;4871370;29;20049;-78
2021/12/28 15:42:58;;;;;;;5.45;1.60;;;;;;;;;;4870475;29;20557;-80
2021/12/28 15:45:25;;;;;;;8.50;1.60;;;;;;;;;;4885075;29;20049;-79
2021/12/28 15:47:55;;;;;;;6.68;1.50;;;;;;;;;;4870905;29;20581;-79
2021/12/28 15:50:22;;;;;;;8.75;1.92;;;;;;;;;;4871263;29;20836;-79
2021/12/28 15:52:49;;;;;;;4.32;1.20;;;;;;;;;;4870397;29;20105;-80
2021/12/28 15:55:16;;;;;;;6.25;1.75;;;;;;;;;;4869342;29;20148;-81
2021/12/28 15:57:43;;;;;;;3.85;1.55;;;;;;;;;;4883585;29;20049;-80
2021/12/28 16:00:12;;;;;;;8.80;2.15;;;;;;;;;;4870384;29;20060;-80
2021/12/28 16:02:39;;;;;;;;;;;;;;;;;;4871281;29;20041;-78
2021/12/28 16:05:06;;;;;;;4.45;1.83;;;;;;;;;;4868699;29;20116;-79
2021/12/28 16:07:33;;;;;;;2.97;0.73;;;;;;;;;;4885231;29;20805;-80
2021/12/28 16:10:00;;;;;;;6.90;1.17;;;;;;;;;;4871843;29;20052;-79
2021/12/28 16:12:26;;;;;;;5.80;1.10;;;;;;;;;;4871590;29;20055;-80
2021/12/28 16:14:53;;;;;;;5.75;1.10;;;;;;;;;;4871870;29;20102;-79
2021/12/28 16:17:20;;;;;;;4.25;1.30;;;;;;;;;;4867442;29;20117;-80
2021/12/28 16:19:47;;;;;;;5.97;1.20;;;;;;;;;;4870735;29;20053;-79
2021/12/28 16:22:14;;;;;;;5.95;1.70;;;;;;;;;;4872139;29;20060;-80
2021/12/28 16:24:42;;;;;;;14.50;7.18;;;;;;;;;;4871801;29;20045;-81
2021/12/28 16:27:09;;;;;;;11.88;6.43;;;;;;;;;;4869951;29;20057;-81
2021/12/28 16:29:37;;;;;;;8.77;3.17;;;;;;;;;;4870674;29;20157;-81
2021/12/28 16:32:04;;;;;;;4.75;1.80;;;;;;;;;;4869898;29;20510;-80
2021/12/28 16:34:31;;;;;;;5.72;2.10;;;;;;;;;;4870822;29;20562;-81
2021/12/28 16:36:58;;;;;;;8.35;2.95;;;;;;;;;;4872602;29;20112;-82
2021/12/28 16:39:28;;;;;;;4.75;1.70;;;;;;;;;;4870667;29;20068;-81
2021/12/28 16:41:55;;;;;;;4.82;2.00;;;;;;;;;;4871227;29;20049;-80
2021/12/28 16:44:22;;;;;;;3.95;1.63;;;;;;;;;;4867818;29;20065;-81
2021/12/28 16:46:54;;;;;;;8.73;2.00;;;;;;;;;;4871594;29;20041;-81
2021/12/28 16:49:25;;;;;;;5.30;2.08;;;;;;;;;;4871300;29;20467;-81
2021/12/28 16:51:52;;;;;;;6.53;2.33;;;;;;;;;;4871739;29;20056;-81
2021/12/28 16:54:19;;;;;;;8.90;4.10;;;;;;;;;;4871457;29;20399;-80
2021/12/28 16:56:47;;;;;;;12.55;5.68;;;;;;;;;;4855675;29;20136;-80
2021/12/28 16:59:14;;;;;;;11.63;5.75;;;;;;;;;;4869199;29;20045;-80
2021/12/28 17:02:05;;;;;;;11.25;7.03;;;;;;;;;;4872541;29;20101;-81
2021/12/28 17:04:34;;;;;;;;;;;;;;;;;;4873029;29;20055;-80
2021/12/28 17:07:03;;;;;;;16.35;4.90;;;;;;;;;;4872812;29;19943;-81
2021/12/28 17:09:30;;;;;;;9.93;4.90;;;;;;;;;;4871618;29;20052;-80
2021/12/28 17:12:04;;;;;;;8.10;4.72;;;;;;;;;;4870730;29;20049;-81
2021/12/28 17:14:31;;;;;;;9.85;5.45;;;;;;;;;;4859745;29;20104;-81
2021/12/28 17:16:58;;;;;;;14.35;8.90;;;;;;;;;;4881880;29;20049;-80
2021/12/28 17:19:24;;;;;;;13.38;7.28;;;;;;;;;;4869681;29;20081;-81
2021/12/28 17:21:51;;;;;;;10.27;5.18;;;;;;;;;;4864695;29;20041;-79
2021/12/28 17:24:18;;;;;;;6.00;3.90;;;;;;;;;;4870341;29;20573;-79
2021/12/28 17:26:45;;;;;;;11.98;4.38;;;;;;;;;;4869829;29;20157;-79
2021/12/28 17:29:14;;;;;;;7.47;4.50;;;;;;;;;;4865796;29;20104;-80
2021/12/28 17:31:40;;;;;;;;;;;;;;;;;;4869661;29;20459;-79
2021/12/28 17:34:07;;;;;;;7.35;4.03;;;;;;;;;;4867887;29;19932;-81
2021/12/28 17:36:34;;;;;;;9.55;3.80;;;;;;;;;;4871265;29;20062;-80
2021/12/28 17:39:02;;;;;;;7.25;3.40;;;;;;;;;;4869834;29;20052;-79
2021/12/28 17:41:29;;;;;;;4.50;3.05;;;;;;;;;;4868744;29;20049;-79
2021/12/28 17:43:56;;;;;;;5.55;3.20;;;;;;;;;;4867132;29;20072;-79
2021/12/28 17:46:23;;;;;;;4.25;2.40;;;;;;;;;;4853378;29;20475;-79
2021/12/28 17:48:50;;;;;;;7.88;2.88;;;;;;;;;;4854780;29;20533;-81
2021/12/28 17:51:20;;;;;;;7.47;3.45;;;;;;;;;;4867370;29;20060;-80
2021/12/28 17:53:47;;;;;;;9.18;3.42;;;;;;;;;;4865546;29;20120;-80
2021/12/28 17:56:14;;;;;;;7.78;3.90;;;;;;;;;;4870713;29;20045;-81
2021/12/28 17:58:40;;;;;;;9.35;4.65;;;;;;;;;;4867423;29;20460;-79
2021/12/28 18:01:07;;;;;;;9.95;5.10;;;;;;;;;;4861736;29;20613;-79
2021/12/28 18:03:34;;;;;;;12.27;6.43;;;;;;;;;;4863544;29;20202;-80
2021/12/28 18:06:01;;;;;;;19.50;13.95;;;;;;;;;;4855864;29;20090;-81
2021/12/28 18:08:27;;;;;;;22.95;10.05;;;;;;;;;;4857379;29;20764;-81
2021/12/28 18:10:54;;;;;;;17.17;8.75;;;;;;;;;;4861032;29;20101;-80
2021/12/28 18:13:22;;;;;;;13.07;6.93;;;;;;;;;;4872516;29;20053;-79
2021/12/28 18:15:49;;;;;;;13.75;7.47;;;;;;;;;;4861212;29;20064;-84
2021/12/28 18:18:20;;;;;;;32.08;17.55;;;;;;;;;;4878054;29;20155;-79
2021/12/28 18:20:48;;;;;;;24.73;12.68;;;;;;;;;;4874406;29;20531;-79
2021/12/28 18:23:16;;;;;;;23.37;13.57;;;;;;;;;;4877355;29;20071;-80
2021/12/28 18:25:43;;;;;;;27.00;18.40;;;;;;;;;;4886566;29;20117;-80
2021/12/28 18:28:11;;;;;;;31.83;21.33;;;;;;;;;;4885538;29;20112;-79
2021/12/28 18:30:38;;;;;;;17.77;11.30;;;;;;;;;;4886634;29;20048;-81
2021/12/28 18:33:14;;;;;;;22.17;14.70;;;;;;;;;;4885026;29;20052;-78
2021/12/28 18:35:43;;;;;;;35.45;20.10;;;;;;;;;;4885218;29;20407;-80
2021/12/28 18:38:17;;;;;;;21.75;13.40;;;;;;;;;;4879978;29;20466;-81
2021/12/28 18:40:44;;;;;;;19.45;14.52;;;;;;;;;;4886018;29;20063;-81
2021/12/28 18:43:11;;;;;;;13.90;9.27;;;;;;;;;;4874230;29;20053;-79
2021/12/28 18:45:38;;;;;;;14.75;11.40;;;;;;;;;;4883719;29;20530;-80
2021/12/28 18:48:09;;;;;;;23.02;16.23;;;;;;;;;;4874501;29;20045;-80
2021/12/28 18:50:38;;;;;;;28.30;22.25;;;;;;;;;;4873671;29;20052;-81
2021/12/28 18:53:05;;;;;;;48.53;28.42;;;;;;;;;;4890193;29;20081;-82
2021/12/28 18:55:32;;;;;;;38.55;22.40;;;;;;;;;;4890943;29;20534;-80
2021/12/28 18:57:59;;;;;;;48.08;29.70;;;;;;;;;;4875253;29;20521;-80
2021/12/28 19:00:26;;;;;;;23.83;13.93;;;;;;;;;;4876954;29;20068;-82
2021/12/28 19:03:14;;;;;;;46.85;31.17;;;;;;;;;;4878331;29;20144;-81
2021/12/28 19:05:41;;;;;;;28.67;20.05;;;;;;;;;;4895104;29;20052;-81
2021/12/28 19:08:08;;;;;;;29.85;20.00;;;;;;;;;;4878534;29;20113;-79
2021/12/28 19:10:35;;;;;;;36.63;26.13;;;;;;;;;;4880232;29;20063;-81
2021/12/28 19:13:02;;;;;;;20.17;15.70;;;;;;;;;;4878142;29;20855;-81
2021/12/28 19:15:29;;;;;;;24.45;11.88;;;;;;;;;;4877537;29;20045;-78
2021/12/28 19:17:56;;;;;;;19.73;14.65;;;;;;;;;;4881660;29;20479;-79
2021/12/28 19:20:24;;;;;;;27.40;14.73;;;;;;;;;;4892972;29;20548;-79
2021/12/28 19:22:51;;;;;;;12.60;8.88;;;;;;;;;;4879473;29;20047;-81
2021/12/28 19:25:18;;;;;;;13.65;6.55;;;;;;;;;;4890253;29;20044;-83
2021/12/28 19:27:45;;;;;;;10.45;5.70;;;;;;;;;;4879687;29;20063;-81
2021/12/28 19:30:14;;;;;;;10.65;6.20;;;;;;;;;;4891423;29;20514;-82
2021/12/28 19:32:40;;;;;;;13.82;5.05;;;;;;;;;;4863101;29;20056;-80
2021/12/28 19:35:08;;;;;;;15.65;11.30;;;;;;;;;;4883093;29;20053;-81
2021/12/28 19:37:35;;;;;;;9.93;6.07;;;;;;;;;;4880861;29;20056;-80
2021/12/28 19:40:03;;;;;;;5.45;3.80;;;;;;;;;;4892235;29;20063;-82
2021/12/28 19:42:32;;;;;;;6.47;3.47;;;;;;;;;;4890897;29;20149;-82
2021/12/28 19:44:59;;;;;;;8.55;3.60;;;;;;;;;;4889819;29;20513;-81
2021/12/28 19:47:27;;;;;;;10.95;4.63;;;;;;;;;;4890470;29;20079;-81
2021/12/28 19:49:57;;;;;;;12.43;5.70;;;;;;;;;;4890552;29;20061;-81
2021/12/28 19:52:23;;;;;;;15.57;7.30;;;;;;;;;;4886537;29;20057;-82
2021/12/28 19:54:51;;;;;;;16.95;7.60;;;;;;;;;;4875982;29;20075;-81
2021/12/28 19:57:17;;;;;;;23.58;6.47;;;;;;;;;;4890514;29;20470;-82
2021/12/28 19:59:45;;;;;;;18.70;5.95;;;;;;;;;;4891898;29;20136;-81
2021/12/28 20:02:12;;;;;;;32.65;9.20;;;;;;;;;;4890033;29;20104;-81
2021/12/28 20:04:39;;;;;;;45.28;5.20;;;;;;;;;;4890896;29;20509;-81
2021/12/28 20:07:06;;;;;;;35.30;5.60;;;;;;;;;;4885474;29;20105;-83
2021/12/28 20:09:33;;;;;;;44.60;5.85;;;;;;;;;;4899268;29;20062;-84
2021/12/28 20:12:00;;;;;;;64.55;7.78;;;;;;;;;;4883286;29;20076;-83
2021/12/28 20:14:27;;;;;;;77.88;9.55;;;;;;;;;;4877421;29;20053;-83
2021/12/28 20:16:54;;;;;;;123.78;13.20;;;;;;;;;;4860645;29;20056;-81
2021/12/28 20:19:21;;;;;;;175.52;14.30;;;;;;;;;;4871491;29;20063;-82
2021/12/28 20:21:48;;;;;;;236.82;17.48;;;;;;;;;;4876011;29;20052;-83
2021/12/28 20:24:15;;;;;;;202.80;18.42;;;;;;;;;;4892570;29;20057;-85
2021/12/28 20:26:43;;;;;;;274.20;23.58;;;;;;;;;;4881209;29;20048;-84
2021/12/28 20:29:11;;;;;;;219.32;21.92;;;;;;;;;;4878077;29;20048;-84
2021/12/28 20:31:38;;;;;;;246.50;23.50;;;;;;;;;;4882313;29;20053;-84
2021/12/28 20:34:05;;;;;;;173.48;16.85;;;;;;;;;;4876252;29;20079;-83
2021/12/28 20:36:32;;;;;;;207.55;20.08;;;;;;;;;;4888728;29;20060;-83
2021/12/28 20:38:58;;;;;;;226.43;21.80;;;;;;;;;;4880191;29;20132;-81
2021/12/28 20:41:25;;;;;;;242.90;21.35;;;;;;;;;;4884215;29;20053;-82
2021/12/28 20:43:52;;;;;;;253.43;21.98;;;;;;;;;;4887506;29;20119;-82
2021/12/28 20:46:18;;;;;;;236.90;20.30;;;;;;;;;;4881114;29;20044;-82
2021/12/28 20:48:49;;;;;;;236.98;22.77;;;;;;;;;;4885715;29;20194;-84
2021/12/28 20:51:16;;;;;;;205.75;19.42;;;;;;;;;;4902545;29;20119;-84